KTBN/TBN METAR and TAF weather

Enter ICAO airport designator
Station Type Date Time Source
KTBN METAR 2020/07/15 04:56 UTC NOAA

KTBN 150456Z AUTO 14007KT 10SM CLR 25/22 A2996 RMK AO2 SLP135 T02540217


Station Type Date Time Source
KTBN Decoded METAR 2020/07/15 04:56 UTC NOAA

Fort Leonard Wood, MO, United States (KTBN) 37-44N 092-08W
Jul 15, 2020 - 12:56 AM EDT / 2020.07.15 0456 UTC
Wind: from the SE (140 degrees) at 8 MPH (7 KT):0
Visibility: 10 mile(s):0
Sky conditions: clear
Temperature: 77.7 F (25.4 C)
Dew Point: 71.1 F (21.7 C)
Relative Humidity: 80%
Pressure (altimeter): 29.96 in. Hg (1014 hPa)
ob: KTBN 150456Z AUTO 14007KT 10SM CLR 25/22 A2996 RMK AO2 SLP135 T02540217
cycle: 5

Station Type Date Time Source
KTBN TAF UTC NOAA

Error!

Example: see airport list